Terminal Aerodrome Forecast
Issued by NWS Huntsville, AL

Home | Current Version | Previous Version | Text Only | Print | Product List | Glossary On
Versions: 1 2 3 4 5 6 7 8 9 10 11 12 13 14 15 16 17 18 19 20 21 22 23 24 25 26
000
FTUS44 KHUN 261720
TAFMSL
TAF
KMSL 261720Z 2618/2718 11008KT P6SM SCT200
     FM270100 12005KT P6SM BKN180
     FM270600 11005KT P6SM BKN080
     FM271100 13009KT P6SM -RA OVC050=

USA.gov is the U.S. government's official web portal to all federal, state and local government web resources and services.